Gil Vicente — CSKG — position and weather

sailwx.info

Track history (hours):
 
Tides and Currents Weather Stations Pressure Air Temp Water Temp Dewpoint Dewpoint Depression Visibility Wind Speed Wind Dir Waves Ship Positions

Gil Vicente

Last reported at 2015-Feb-26 21:08 UTC. Time now 2015-Feb-27 06:08 UTC.
Position N 38°39' W 009°05'.

Length 49 m.

Type: Passenger vessel. MMSI: 263701390.

Date/timePositionNaut miles runAvg speedWind from/ knotsBaromVisibWave heightAir tempDewpointWater temp
2015-Feb-26 21:08N 38°39' W 009°05'4 6.2
2015-Feb-26 20:33N 38°42' W 009°08'2 2.4
2015-Feb-26 19:33N 38°40' W 009°06'3 2.6
2015-Feb-26 18:33N 38°42' W 009°08'0 0.4
2015-Feb-26 17:33N 38°42' W 009°08'1 0.9
2015-Feb-26 16:33N 38°41' W 009°08'3 3.3
2015-Feb-26 15:33N 38°39' W 009°05'2 2.1
2015-Feb-26 14:33N 38°40' W 009°07'1 0.8
2015-Feb-26 13:34N 38°40' W 009°06'1 1.2
2015-Feb-26 12:33N 38°39' W 009°05'0 0.0
2015-Feb-26 11:33N 38°39' W 009°05'3 2.8
2015-Feb-26 10:33N 38°41' W 009°08'3 2.8
2015-Feb-26 09:33N 38°39' W 009°05'1 0.9
2015-Feb-26 08:33N 38°39' W 009°06'3 3.1
2015-Feb-26 07:33N 38°42' W 009°08'1 0.6
2015-Feb-26 06:33N 38°42' W 009°08'0 0.0
2015-Feb-26 05:34N 38°42' W 009°08'4 1.3
2015-Feb-26 02:23N 38°39' W 009°05'0 0.5
2015-Feb-26 01:33N 38°39' W 009°05'0 0.1
2015-Feb-26 00:33N 38°39' W 009°05'0 0.1
2015-Feb-25 23:33N 38°39' W 009°05'1 1.2
2015-Feb-25 22:34N 38°40' W 009°06'1 0.6
2015-Feb-25 21:34N 38°40' W 009°07'2 2.1
2015-Feb-25 20:34N 38°39' W 009°05'0 0.0
2015-Feb-25 19:33N 38°39' W 009°05'1 1.1
2015-Feb-25 18:33N 38°40' W 009°06'3 2.9
2015-Feb-25 17:34N 38°42' W 009°08'4 3.8
2015-Feb-25 16:34N 38°39' W 009°05'1 0.1
2015-Feb-25 09:33N 38°39' W 009°06'3 2.8
2015-Feb-25 08:33N 38°42' W 009°08'0 0.5
2015-Feb-25 07:33N 38°42' W 009°08'4 0.2
2015-Feb-24 09:24N 38°39' W 009°05'0 0.5
2015-Feb-24 08:33N 38°39' W 009°05'1 0.5
2015-Feb-24 07:32N 38°39' W 009°05'0 0.1
2015-Feb-24 06:33N 38°39' W 009°05'0 0.0
2015-Feb-23 21:29N 38°39' W 009°05'0 0.0
2015-Feb-23 20:33N 38°39' W 009°05'4 3.7
2015-Feb-23 19:33N 38°42' W 009°08'2 1.7
2015-Feb-23 18:33N 38°40' W 009°07'2 2.4
2015-Feb-23 17:33N 38°39' W 009°05'0 0.0
2015-Feb-23 16:33N 38°39' W 009°05'0 0.0
2015-Feb-23 15:33N 38°39' W 009°05'0 0.0
2015-Feb-23 12:18N 38°39' W 009°05'2 2.6
2015-Feb-23 11:33N 38°40' W 009°07'1 1.0
2015-Feb-23 10:33N 38°40' W 009°06'0 0.1
2015-Feb-23 09:33N 38°40' W 009°06'3 2.8
2015-Feb-23 08:33N 38°42' W 009°08'0 0.4
2015-Feb-23 07:33N 38°42' W 009°08'  
2015-Feb-20 21:15N 38°39' W 009°05'3 4.9
2015-Feb-20 20:33N 38°42' W 009°08'3 2.5
2015-Feb-20 19:33N 38°40' W 009°06'3 2.9
2015-Feb-20 18:34N 38°42' W 009°08'4 3.8
2015-Feb-20 17:33N 38°39' W 009°05'3 3.2
2015-Feb-20 16:33N 38°41' W 009°08'3 3.2
2015-Feb-20 15:33N 38°39' W 009°05'2 1.9
2015-Feb-20 14:34N 38°40' W 009°07'1 0.5
2015-Feb-20 13:33N 38°40' W 009°06'1 1.3
2015-Feb-20 12:33N 38°39' W 009°05'0 0.0
2015-Feb-20 11:33N 38°39' W 009°05'3 2.9
2015-Feb-20 10:33N 38°41' W 009°08'3 3.0
2015-Feb-20 09:33N 38°39' W 009°05'1 1.0
2015-Feb-20 08:33N 38°39' W 009°06'3 2.9
2015-Feb-20 07:33N 38°42' W 009°08'0 0.4
2015-Feb-20 06:33N 38°42' W 009°08'0 0.0
2015-Feb-20 05:33N 38°42' W 009°08'4 1.3
2015-Feb-20 02:22N 38°39' W 009°05'0 0.5
2015-Feb-20 01:33N 38°39' W 009°05'0 0.1
2015-Feb-20 00:33N 38°39' W 009°05'0 0.0
2015-Feb-19 23:33N 38°39' W 009°05'1 1.2
2015-Feb-19 22:33N 38°40' W 009°06'0 0.0
2015-Feb-19 21:33N 38°40' W 009°06'2 1.5
2015-Feb-19 20:33N 38°39' W 009°05'0 0.0
2015-Feb-19 19:33N 38°39' W 009°05'1 0.9
2015-Feb-19 18:33N 38°39' W 009°06'3 3.3
2015-Feb-19 17:33N 38°42' W 009°08'4 3.9
2015-Feb-19 16:33N 38°39' W 009°05'0 0.1
2015-Feb-19 13:13N 38°39' W 009°05'1 1.9
2015-Feb-19 12:33N 38°40' W 009°06'0 0.1
2015-Feb-19 11:33N 38°40' W 009°06'1 1.3
2015-Feb-19 10:33N 38°39' W 009°05'0 0.0
2015-Feb-19 09:33N 38°39' W 009°05'0 0.0
2015-Feb-19 08:33N 38°39' W 009°05'1 1.0
2015-Feb-19 07:33N 38°39' W 009°06'1 0.9
2015-Feb-19 06:33N 38°39' W 009°05'4 0.4
2015-Feb-18 20:33N 38°42' W 009°08'0 0.4
2015-Feb-18 19:33N 38°42' W 009°08'1 0.8
2015-Feb-18 18:33N 38°42' W 009°08'3 3.5
2015-Feb-18 17:34N 38°39' W 009°05'4 3.8
2015-Feb-18 16:33N 38°42' W 009°08'1 1.4
2015-Feb-18 15:33N 38°41' W 009°08'0 0.0
2015-Feb-18 14:33N 38°41' W 009°08'0 0.3
2015-Feb-18 13:33N 38°41' W 009°08'0 0.0
2015-Feb-18 12:33N 38°41' W 009°08'0 0.1
2015-Feb-18 11:33N 38°41' W 009°08'3 2.8
2015-Feb-18 10:31N 38°39' W 009°05'3 2.6
2015-Feb-18 09:33N 38°40' W 009°07'2 2.0
2015-Feb-18 08:33N 38°42' W 009°08'1 1.1
2015-Feb-18 07:33N 38°41' W 009°08'3 3.2
2015-Feb-18 06:33N 38°39' W 009°05'0 0.0
2015-Feb-16 21:33N 38°39' W 009°05'  
Track history (hours):
 
Tides and Currents Weather Stations Pressure Air Temp Water Temp Dewpoint Dewpoint Depression Visibility Wind Speed Wind Dir Waves Ship Positions

Gil Vicente

Last reported at 2015-Feb-26 21:08 UTC. Time now 2015-Feb-27 06:08 UTC.
Position N 38°39' W 009°05'.

Length 49 m.

Type: Passenger vessel. MMSI: 263701390.

Date/timePositionNaut miles runAvg speedWind from/ knotsBaromVisibWave heightAir tempDewpointWater temp
2015-Feb-26 21:08N 38°39' W 009°05'4 6.2
2015-Feb-26 20:33N 38°42' W 009°08'2 2.4
2015-Feb-26 19:33N 38°40' W 009°06'3 2.6
2015-Feb-26 18:33N 38°42' W 009°08'0 0.4
2015-Feb-26 17:33N 38°42' W 009°08'1 0.9
2015-Feb-26 16:33N 38°41' W 009°08'3 3.3
2015-Feb-26 15:33N 38°39' W 009°05'2 2.1
2015-Feb-26 14:33N 38°40' W 009°07'1 0.8
2015-Feb-26 13:34N 38°40' W 009°06'1 1.2
2015-Feb-26 12:33N 38°39' W 009°05'0 0.0
2015-Feb-26 11:33N 38°39' W 009°05'3 2.8
2015-Feb-26 10:33N 38°41' W 009°08'3 2.8
2015-Feb-26 09:33N 38°39' W 009°05'1 0.9
2015-Feb-26 08:33N 38°39' W 009°06'3 3.1
2015-Feb-26 07:33N 38°42' W 009°08'1 0.6
2015-Feb-26 06:33N 38°42' W 009°08'0 0.0
2015-Feb-26 05:34N 38°42' W 009°08'4 1.3
2015-Feb-26 02:23N 38°39' W 009°05'0 0.5
2015-Feb-26 01:33N 38°39' W 009°05'0 0.1
2015-Feb-26 00:33N 38°39' W 009°05'0 0.1
2015-Feb-25 23:33N 38°39' W 009°05'1 1.2
2015-Feb-25 22:34N 38°40' W 009°06'1 0.6
2015-Feb-25 21:34N 38°40' W 009°07'2 2.1
2015-Feb-25 20:34N 38°39' W 009°05'0 0.0
2015-Feb-25 19:33N 38°39' W 009°05'1 1.1
2015-Feb-25 18:33N 38°40' W 009°06'3 2.9
2015-Feb-25 17:34N 38°42' W 009°08'4 3.8
2015-Feb-25 16:34N 38°39' W 009°05'1 0.1
2015-Feb-25 09:33N 38°39' W 009°06'3 2.8
2015-Feb-25 08:33N 38°42' W 009°08'0 0.5
2015-Feb-25 07:33N 38°42' W 009°08'4 0.2
2015-Feb-24 09:24N 38°39' W 009°05'0 0.5
2015-Feb-24 08:33N 38°39' W 009°05'1 0.5
2015-Feb-24 07:32N 38°39' W 009°05'0 0.1
2015-Feb-24 06:33N 38°39' W 009°05'0 0.0
2015-Feb-23 21:29N 38°39' W 009°05'0 0.0
2015-Feb-23 20:33N 38°39' W 009°05'4 3.7
2015-Feb-23 19:33N 38°42' W 009°08'2 1.7
2015-Feb-23 18:33N 38°40' W 009°07'2 2.4
2015-Feb-23 17:33N 38°39' W 009°05'0 0.0
2015-Feb-23 16:33N 38°39' W 009°05'0 0.0
2015-Feb-23 15:33N 38°39' W 009°05'0 0.0
2015-Feb-23 12:18N 38°39' W 009°05'2 2.6
2015-Feb-23 11:33N 38°40' W 009°07'1 1.0
2015-Feb-23 10:33N 38°40' W 009°06'0 0.1
2015-Feb-23 09:33N 38°40' W 009°06'3 2.8
2015-Feb-23 08:33N 38°42' W 009°08'0 0.4
2015-Feb-23 07:33N 38°42' W 009°08'  
2015-Feb-20 21:15N 38°39' W 009°05'3 4.9
2015-Feb-20 20:33N 38°42' W 009°08'3 2.5
2015-Feb-20 19:33N 38°40' W 009°06'3 2.9
2015-Feb-20 18:34N 38°42' W 009°08'4 3.8
2015-Feb-20 17:33N 38°39' W 009°05'3 3.2
2015-Feb-20 16:33N 38°41' W 009°08'3 3.2
2015-Feb-20 15:33N 38°39' W 009°05'2 1.9
2015-Feb-20 14:34N 38°40' W 009°07'1 0.5
2015-Feb-20 13:33N 38°40' W 009°06'1 1.3
2015-Feb-20 12:33N 38°39' W 009°05'0 0.0
2015-Feb-20 11:33N 38°39' W 009°05'3 2.9
2015-Feb-20 10:33N 38°41' W 009°08'3 3.0
2015-Feb-20 09:33N 38°39' W 009°05'1 1.0
2015-Feb-20 08:33N 38°39' W 009°06'3 2.9
2015-Feb-20 07:33N 38°42' W 009°08'0 0.4
2015-Feb-20 06:33N 38°42' W 009°08'0 0.0
2015-Feb-20 05:33N 38°42' W 009°08'4 1.3
2015-Feb-20 02:22N 38°39' W 009°05'0 0.5
2015-Feb-20 01:33N 38°39' W 009°05'0 0.1
2015-Feb-20 00:33N 38°39' W 009°05'0 0.0
2015-Feb-19 23:33N 38°39' W 009°05'1 1.2
2015-Feb-19 22:33N 38°40' W 009°06'0 0.0
2015-Feb-19 21:33N 38°40' W 009°06'2 1.5
2015-Feb-19 20:33N 38°39' W 009°05'0 0.0
2015-Feb-19 19:33N 38°39' W 009°05'1 0.9
2015-Feb-19 18:33N 38°39' W 009°06'3 3.3
2015-Feb-19 17:33N 38°42' W 009°08'4 3.9
2015-Feb-19 16:33N 38°39' W 009°05'0 0.1
2015-Feb-19 13:13N 38°39' W 009°05'1 1.9
2015-Feb-19 12:33N 38°40' W 009°06'0 0.1
2015-Feb-19 11:33N 38°40' W 009°06'1 1.3
2015-Feb-19 10:33N 38°39' W 009°05'0 0.0
2015-Feb-19 09:33N 38°39' W 009°05'0 0.0
2015-Feb-19 08:33N 38°39' W 009°05'1 1.0
2015-Feb-19 07:33N 38°39' W 009°06'1 0.9
2015-Feb-19 06:33N 38°39' W 009°05'4 0.4
2015-Feb-18 20:33N 38°42' W 009°08'0 0.4
2015-Feb-18 19:33N 38°42' W 009°08'1 0.8
2015-Feb-18 18:33N 38°42' W 009°08'3 3.5
2015-Feb-18 17:34N 38°39' W 009°05'4 3.8
2015-Feb-18 16:33N 38°42' W 009°08'1 1.4
2015-Feb-18 15:33N 38°41' W 009°08'0 0.0
2015-Feb-18 14:33N 38°41' W 009°08'0 0.3
2015-Feb-18 13:33N 38°41' W 009°08'0 0.0
2015-Feb-18 12:33N 38°41' W 009°08'0 0.1
2015-Feb-18 11:33N 38°41' W 009°08'3 2.8
2015-Feb-18 10:31N 38°39' W 009°05'3 2.6
2015-Feb-18 09:33N 38°40' W 009°07'2 2.0
2015-Feb-18 08:33N 38°42' W 009°08'1 1.1
2015-Feb-18 07:33N 38°41' W 009°08'3 3.2
2015-Feb-18 06:33N 38°39' W 009°05'0 0.0
2015-Feb-16 21:33N 38°39' W 009°05'  

Dump ship's entire track history